Kilkenny, Ireland

2:56 PM GMT on January 23, 2017 (GMT +0000)
Kilkenny | | Change Station

Elev 160 ft 52.66 °N, 7.25 °W | Updated 4 minutes ago

Partly Cloudy
Partly Cloudy
50.2 °F
Feels Like 50.2 °F
N
0.0
Wind Variable Wind from SSE
Gusts 14.0 mph

Today
High -- | Low -- °F
--% Chance of Precip.
Yesterday
High -- | Low -- °F
Precip. -- in
Pressure 30.24 in
Visibility 6.2 miles
Clouds Few 3500 ft
Dew Point 27 °F
Humidity 61%
Rainfall 0.00 in
Snow Depth Not available.
8:24 AM 4:58 PM
Waning Crescent, 18% visible
METAR EIWF 231430Z 20012KT 9999 FEW035 10/06 Q1024
Pressure 30.24 in
Visibility 6.2 miles
Clouds Few 3500 ft
Dew Point 27 °F
Humidity 61%
Rainfall 0.00 in
Snow Depth Not available.
8:24 AM 4:58 PM
Waning Crescent, 18% visible
METAR EIWF 231430Z 20012KT 9999 FEW035 10/06 Q1024

Get Your Daily Forecast Email!

Thanks for signing up!

Be on the lookout for a verification email in your inbox.

You'll start receiving the daily forecast at 8 AM.

×

10-Day Weather Forecast

×

Almanac

Astronomy

Jan. 23, 2017 Rise Set
Actual Time
Civil Twilight
Nautical Twilight
Astronomical Twilight
Moon
Length of Visible Light
Length of Day
Tomorrow will be .
, % of the Moon is Illuminated

Today's Extremes

Country Highs Country Lows

Community

WunderPhotos

Upload Photos

1,962,540 photos uploaded!

WunderBlog® & News

Nearby

Air Quality

  Air Quality AQ Index Pollutant
Not available.

Snow Depth

Station Depth Elevation

Earthquake Activity

City Distance Mag. Time & Date
Minimum magnitude displayed is 2.5.

Coastal Water Temperatures

Place Temperature

Stations

Nearby Weather Stations

Station Location Temp. Windchill Dew Point Humidity Wind Precip. Elev Updated Type